Time;durP1;ratioP1;P1;durP2;ratioP2;P2;SDS_P1;SDS_P2;PMS_P1;PMS_P2;Temp;Humidity;BMP_temperature;BMP_pressure;BME280_temperature;BME280_humidity;BME280_pressure;Samples;Min_cycle;Max_cycle;Signal;HPM_P1;HPM_P2
2022/02/23 00:01:15;;;;;;;4.03;2.00;;;1.80;99.90;;;;;;5035079;28;20025;-78
2022/02/23 00:03:41;;;;;;;4.38;3.20;;;1.80;99.90;;;;;;5034801;28;20049;-78
2022/02/23 00:06:07;;;;;;;5.95;2.08;;;1.70;99.90;;;;;;5034715;28;20033;-78
2022/02/23 00:08:33;;;;;;;1.92;1.33;;;1.70;99.90;;;;;;5051267;28;20009;-79
2022/02/23 00:10:59;;;;;;;4.40;2.08;;;1.70;99.90;;;;;;5034612;28;20037;-79
2022/02/23 00:13:27;;;;;;;3.22;1.35;;;1.70;99.90;;;;;;5034787;28;20029;-79
2022/02/23 00:15:54;;;;;;;3.15;1.25;;;1.70;99.90;;;;;;5035336;28;20025;-79
2022/02/23 00:18:20;;;;;;;5.55;1.35;;;1.70;99.90;;;;;;5034983;28;20112;-79
2022/02/23 00:20:46;;;;;;;4.13;1.45;;;1.70;99.90;;;;;;5034434;28;20060;-79
2022/02/23 00:23:12;;;;;;;6.45;2.75;;;1.70;99.90;;;;;;5034067;28;20025;-80
2022/02/23 00:25:38;;;;;;;4.30;2.78;;;1.80;99.90;;;;;;5034123;28;20025;-80
2022/02/23 00:28:04;;;;;;;3.90;2.53;;;1.80;99.90;;;;;;5054013;28;20077;-81
2022/02/23 00:30:30;;;;;;;5.88;3.10;;;1.80;99.90;;;;;;5040256;28;20104;-81
2022/02/23 00:32:56;;;;;;;6.13;2.63;;;1.80;99.90;;;;;;5041834;28;20111;-82
2022/02/23 00:35:22;;;;;;;7.72;3.08;;;1.80;99.90;;;;;;5041140;28;20033;-80
2022/02/23 00:37:47;;;;;;;5.35;2.13;;;1.90;99.90;;;;;;5038654;28;20464;-80
2022/02/23 00:40:13;;;;;;;6.63;2.42;;;1.90;99.90;;;;;;5055630;28;20096;-81
2022/02/23 00:42:39;;;;;;;5.22;2.70;;;1.90;99.90;;;;;;5055150;28;20061;-79
2022/02/23 00:45:05;;;;;;;3.50;1.77;;;1.80;99.90;;;;;;5054538;28;20035;-80
2022/02/23 00:47:31;;;;;;;3.00;1.65;;;1.90;99.90;;;;;;5055603;28;20029;-79
2022/02/23 00:49:56;;;;;;;4.55;1.73;;;1.90;99.90;;;;;;5037596;28;20162;-80
2022/02/23 00:52:22;;;;;;;3.25;1.73;;;1.90;99.90;;;;;;5055283;28;20475;-80
2022/02/23 00:54:48;;;;;;;8.23;3.10;;;1.80;99.90;;;;;;5037535;28;20431;-79
2022/02/23 00:57:15;;;;;;;5.55;3.20;;;1.90;99.90;;;;;;5037449;28;20020;-79
2022/02/23 00:59:44;;;;;;;8.70;3.55;;;1.80;99.90;;;;;;5037477;28;20060;-80
2022/02/23 01:02:11;;;;;;;6.25;3.47;;;1.80;99.90;;;;;;5054208;28;20075;-79
2022/02/23 01:04:37;;;;;;;7.28;3.50;;;1.80;99.90;;;;;;5037388;28;20112;-79
2022/02/23 01:07:03;;;;;;;5.47;2.85;;;1.70;99.90;;;;;;5037423;28;20132;-79
2022/02/23 01:09:29;;;;;;;8.45;3.33;;;1.70;99.90;;;;;;5036718;28;20388;-79
2022/02/23 01:11:55;;;;;;;8.82;3.72;;;1.60;99.90;;;;;;5037395;28;20028;-78
2022/02/23 01:14:21;;;;;;;4.45;2.58;;;1.50;99.90;;;;;;5037171;28;20033;-79
2022/02/23 01:16:47;;;;;;;5.43;2.65;;;1.50;99.90;;;;;;5054986;28;20445;-79
2022/02/23 01:19:12;;;;;;;4.28;2.67;;;1.40;99.90;;;;;;5037091;28;20083;-78
2022/02/23 01:21:38;;;;;;;6.32;2.60;;;1.30;99.90;;;;;;5055181;28;20025;-79
2022/02/23 01:24:04;;;;;;;12.15;4.25;;;1.30;99.90;;;;;;5054808;28;20463;-79
2022/02/23 01:26:30;;;;;;;8.10;3.55;;;1.30;99.90;;;;;;5037066;28;20411;-79
2022/02/23 01:28:56;;;;;;;10.00;3.40;;;1.20;99.90;;;;;;5036782;28;20033;-81
2022/02/23 01:31:22;;;;;;;11.95;3.60;;;1.20;99.90;;;;;;5036906;28;20021;-80
2022/02/23 01:33:48;;;;;;;6.15;2.25;;;1.10;99.90;;;;;;5036865;28;20027;-79
2022/02/23 01:36:13;;;;;;;9.82;2.72;;;1.10;99.90;;;;;;5037231;28;20040;-79
2022/02/23 01:38:39;;;;;;;5.00;2.15;;;1.10;99.90;;;;;;5036655;28;20029;-79
2022/02/23 01:41:06;;;;;;;4.45;1.92;;;1.00;99.90;;;;;;5036015;28;20392;-80
2022/02/23 01:43:32;;;;;;;4.30;1.95;;;0.90;99.90;;;;;;5036598;28;20533;-81
2022/02/23 01:45:57;;;;;;;6.53;2.45;;;0.80;99.90;;;;;;5036795;28;20037;-78
2022/02/23 01:48:23;;;;;;;4.28;2.20;;;0.80;99.90;;;;;;5054881;28;20021;-79
2022/02/23 01:50:49;;;;;;;3.65;2.17;;;0.70;99.90;;;;;;5054676;28;20041;-79
2022/02/23 01:53:17;;;;;;;5.78;2.72;;;0.60;99.90;;;;;;5036939;28;20029;-79
2022/02/23 01:55:43;;;;;;;3.00;1.67;;;0.60;99.90;;;;;;5036606;28;20109;-79
2022/02/23 01:58:09;;;;;;;3.60;1.30;;;0.50;99.90;;;;;;5036643;28;20031;-79
2022/02/23 02:00:35;;;;;;;2.35;1.55;;;0.50;99.90;;;;;;5036514;28;20036;-79
2022/02/23 02:03:01;;;;;;;2.78;1.42;;;0.40;99.90;;;;;;5036447;28;20021;-79
2022/02/23 02:05:26;;;;;;;4.85;1.67;;;0.40;99.90;;;;;;5036104;28;20427;-79
2022/02/23 02:07:52;;;;;;;3.05;1.77;;;0.30;99.90;;;;;;5054356;28;20099;-79
2022/02/23 02:10:18;;;;;;;3.13;1.38;;;0.30;99.90;;;;;;5052647;28;20040;-79
2022/02/23 02:12:43;;;;;;;2.88;1.38;;;0.20;99.90;;;;;;5036280;28;20021;-80
2022/02/23 02:15:10;;;;;;;4.88;1.67;;;0.20;99.90;;;;;;5036236;28;20032;-79
2022/02/23 02:17:41;;;;;;;2.55;1.63;;;0.20;99.90;;;;;;5036234;28;20119;-79
2022/02/23 02:20:08;;;;;;;3.00;1.33;;;0.10;99.90;;;;;;5036400;28;20181;-78
2022/02/23 02:22:33;;;;;;;2.83;1.77;;;0.10;99.90;;;;;;5035943;28;20530;-79
2022/02/23 02:25:02;;;;;;;6.60;2.78;;;0.10;99.90;;;;;;5035957;28;20024;-78
2022/02/23 02:27:27;;;;;;;3.85;1.80;;;0.10;99.90;;;;;;5052779;28;20530;-79
2022/02/23 02:29:53;;;;;;;4.45;1.85;;;0.00;99.90;;;;;;5035957;28;20032;-78
2022/02/23 02:32:19;;;;;;;2.20;1.20;;;-0.10;99.90;;;;;;5035812;28;20017;-79
2022/02/23 02:34:46;;;;;;;3.60;2.00;;;-0.10;99.90;;;;;;5053556;28;20082;-79
2022/02/23 02:37:13;;;;;;;5.22;1.23;;;-0.20;99.90;;;;;;5035827;28;20025;-79
2022/02/23 02:39:39;;;;;;;3.35;1.60;;;-0.20;99.90;;;;;;5053779;28;20071;-79
2022/02/23 02:42:06;;;;;;;3.88;1.27;;;-0.30;99.90;;;;;;5053485;28;20400;-80
2022/02/23 02:44:32;;;;;;;4.30;1.40;;;-0.30;99.90;;;;;;5053594;28;20422;-79
2022/02/23 02:46:57;;;;;;;2.80;1.25;;;-0.30;99.90;;;;;;5053551;28;20086;-80
2022/02/23 02:49:23;;;;;;;3.90;1.40;;;-0.40;99.90;;;;;;5053475;28;20037;-79
2022/02/23 02:51:49;;;;;;;3.28;1.67;;;-0.40;99.90;;;;;;5053708;28;20025;-80
2022/02/23 02:54:15;;;;;;;7.97;1.65;;;-0.50;99.90;;;;;;5035298;28;20175;-80
2022/02/23 02:56:41;;;;;;;1.27;1.08;;;-0.40;99.90;;;;;;5036346;28;20416;-81
2022/02/23 02:59:07;;;;;;;1.85;1.42;;;-0.40;99.90;;;;;;5054347;28;20021;-82
2022/02/23 03:01:34;;;;;;;2.50;1.30;;;-0.40;99.90;;;;;;5054030;28;20025;-79
2022/02/23 03:04:00;;;;;;;3.60;1.70;;;-0.40;99.90;;;;;;5035535;28;20029;-80
2022/02/23 03:06:26;;;;;;;5.82;1.83;;;-0.40;99.90;;;;;;5053069;28;20116;-80
2022/02/23 03:08:54;;;;;;;1.65;1.10;;;-0.50;99.90;;;;;;5052378;28;20028;-80
2022/02/23 03:11:20;;;;;;;1.98;1.13;;;-0.40;99.90;;;;;;5035510;28;20032;-80
2022/02/23 03:13:46;;;;;;;6.65;1.73;;;-0.50;99.90;;;;;;5053061;28;20025;-79
2022/02/23 03:16:14;;;;;;;1.83;1.33;;;-0.50;99.90;;;;;;5053427;28;20029;-80
2022/02/23 03:18:40;;;;;;;7.25;2.40;;;-0.50;99.90;;;;;;5036079;28;20032;-79
2022/02/23 03:21:06;;;;;;;4.95;2.20;;;-0.50;99.90;;;;;;5035712;28;20029;-78
2022/02/23 03:23:32;;;;;;;4.38;2.42;;;-0.40;99.90;;;;;;5035138;28;20028;-80
2022/02/23 03:25:57;;;;;;;4.88;2.20;;;-0.40;99.90;;;;;;5035030;28;20029;-79
2022/02/23 03:28:23;;;;;;;6.47;2.90;;;-0.40;99.90;;;;;;5035118;28;20029;-79
2022/02/23 03:30:49;;;;;;;8.82;2.53;;;-0.30;99.90;;;;;;5034783;28;20059;-79
2022/02/23 03:33:15;;;;;;;3.85;2.00;;;-0.30;99.90;;;;;;5035025;28;20031;-80
2022/02/23 03:35:43;;;;;;;5.03;2.60;;;-0.30;99.90;;;;;;5034833;28;20387;-79
2022/02/23 03:38:09;;;;;;;3.65;2.40;;;-0.30;99.90;;;;;;5035169;28;20024;-80
2022/02/23 03:40:35;;;;;;;7.22;3.67;;;-0.30;99.90;;;;;;5034559;28;20041;-79
2022/02/23 03:43:01;;;;;;;4.43;3.20;;;-0.40;99.90;;;;;;5035283;28;20029;-79
2022/02/23 03:45:27;;;;;;;45.65;16.25;;;-0.40;99.90;;;;;;5035176;28;20032;-80
2022/02/23 03:47:53;;;;;;;19.05;7.90;;;-0.40;99.90;;;;;;5034796;28;20430;-80
2022/02/23 03:50:19;;;;;;;8.48;3.58;;;-0.40;99.90;;;;;;5052892;28;20472;-82
2022/02/23 03:52:44;;;;;;;7.55;3.58;;;-0.40;99.90;;;;;;5035238;28;20109;-79
2022/02/23 03:55:11;;;;;;;10.32;4.95;;;-0.50;99.90;;;;;;5052703;28;20021;-79
2022/02/23 03:57:37;;;;;;;9.50;4.80;;;-0.40;99.90;;;;;;5053101;28;20021;-79
2022/02/23 04:00:06;;;;;;;7.72;4.90;;;-0.40;99.90;;;;;;5034568;28;20025;-80
2022/02/23 04:02:31;;;;;;;13.60;7.63;;;-0.40;99.90;;;;;;5034823;28;20091;-80
2022/02/23 04:04:57;;;;;;;8.23;4.50;;;-0.40;99.90;;;;;;5035876;28;20431;-79
2022/02/23 04:07:23;;;;;;;8.35;3.45;;;-0.20;99.90;;;;;;5038929;28;20025;-79
2022/02/23 04:09:48;;;;;;;7.40;3.83;;;-0.50;99.90;;;;;;5038393;28;20033;-80
2022/02/23 04:12:19;;;;;;;6.80;3.08;;;-0.30;99.90;;;;;;5038650;28;20025;-79
2022/02/23 04:14:45;;;;;;;6.30;3.08;;;-0.40;99.90;;;;;;5038802;28;20040;-79
2022/02/23 04:17:11;;;;;;;8.75;3.35;;;-0.40;99.90;;;;;;5038711;28;20021;-81
2022/02/23 04:19:38;;;;;;;9.63;3.88;;;-0.40;99.90;;;;;;5038514;28;20106;-80
2022/02/23 04:22:05;;;;;;;8.98;4.03;;;-0.30;99.90;;;;;;5039233;28;20028;-80
2022/02/23 04:24:31;;;;;;;7.13;3.88;;;-0.30;99.90;;;;;;5038684;28;20029;-79
2022/02/23 04:26:56;;;;;;;5.57;3.40;;;-0.20;99.90;;;;;;5038169;28;20112;-80
2022/02/23 04:29:22;;;;;;;8.52;3.90;;;-0.10;99.90;;;;;;5038399;28;20056;-80
2022/02/23 04:31:48;;;;;;;8.50;3.70;;;-0.10;99.90;;;;;;5038284;28;20563;-79
2022/02/23 04:34:15;;;;;;;7.57;4.65;;;0.00;99.90;;;;;;5038470;28;20025;-83
2022/02/23 04:36:41;;;;;;;9.98;4.93;;;0.10;99.90;;;;;;5045621;28;20032;-82
2022/02/23 04:39:08;;;;;;;7.45;4.90;;;0.10;99.90;;;;;;5056167;28;20021;-82
2022/02/23 04:41:34;;;;;;;6.35;3.60;;;0.10;99.90;;;;;;5056516;28;20045;-81
2022/02/23 04:44:00;;;;;;;7.47;3.67;;;0.00;99.90;;;;;;5056118;28;20041;-82
2022/02/23 04:46:26;;;;;;;7.32;3.90;;;0.00;99.90;;;;;;5073757;28;20096;-82
2022/02/23 04:48:51;;;;;;;8.27;3.83;;;0.00;99.90;;;;;;5055676;28;20029;-83
2022/02/23 04:51:19;;;;;;;6.97;3.88;;;-0.10;99.90;;;;;;5073880;28;20104;-84
2022/02/23 04:53:46;;;;;;;11.77;5.15;;;-0.10;99.90;;;;;;5042215;28;20036;-80
2022/02/23 04:56:12;;;;;;;8.77;4.95;;;-0.10;99.90;;;;;;5037944;28;20531;-80
2022/02/23 04:58:38;;;;;;;13.50;4.68;;;-0.20;99.90;;;;;;5038215;28;20025;-79
2022/02/23 05:01:05;;;;;;;8.35;4.68;;;-0.30;99.90;;;;;;5037951;28;20017;-80
2022/02/23 05:03:32;;;;;;;8.43;5.18;;;-0.20;99.90;;;;;;5038257;28;20032;-79
2022/02/23 05:05:59;;;;;;;10.68;4.97;;;-0.30;99.90;;;;;;5038431;28;20104;-79
2022/02/23 05:08:29;;;;;;;8.80;4.93;;;-0.30;99.90;;;;;;5037734;28;20028;-80
2022/02/23 05:10:57;;;;;;;11.15;4.50;;;-0.30;99.90;;;;;;5037535;28;20114;-80
2022/02/23 05:13:25;;;;;;;8.40;4.20;;;-0.40;99.90;;;;;;5054671;28;20104;-79
2022/02/23 05:15:56;;;;;;;8.90;4.47;;;-0.40;99.90;;;;;;5036822;28;20029;-79
2022/02/23 05:18:23;;;;;;;10.27;3.83;;;-0.40;99.90;;;;;;5037219;28;20025;-79
2022/02/23 05:20:48;;;;;;;11.63;5.10;;;-0.40;99.90;;;;;;5037374;28;20021;-80
2022/02/23 05:23:15;;;;;;;7.95;4.28;;;-0.40;99.90;;;;;;5054008;28;20048;-79
2022/02/23 05:25:40;;;;;;;9.98;4.40;;;-0.40;99.90;;;;;;5037154;28;20120;-79
2022/02/23 05:28:06;;;;;;;13.48;5.72;;;-0.40;99.90;;;;;;5037177;28;20452;-80
2022/02/23 05:30:32;;;;;;;11.75;5.18;;;-0.40;99.90;;;;;;5039841;28;20044;-83
2022/02/23 05:32:57;;;;;;;29.45;13.88;;;-0.40;99.90;;;;;;5038711;28;20494;-82
2022/02/23 05:35:23;;;;;;;11.88;6.90;;;-0.30;99.90;;;;;;5038217;28;20123;-80
2022/02/23 05:37:49;;;;;;;8.40;4.32;;;-0.20;99.90;;;;;;5038978;28;20054;-83
2022/02/23 05:40:15;;;;;;;8.43;4.47;;;-0.10;99.90;;;;;;5039706;28;20032;-81
2022/02/23 05:42:41;;;;;;;6.72;3.58;;;-0.10;99.90;;;;;;5040685;28;20150;-82
2022/02/23 05:45:07;;;;;;;12.10;4.35;;;0.00;99.90;;;;;;5055491;28;20036;-81
2022/02/23 05:47:33;;;;;;;13.57;4.78;;;0.00;99.90;;;;;;5037583;28;20029;-81
2022/02/23 05:49:58;;;;;;;10.52;4.95;;;-0.10;99.90;;;;;;5037585;28;20040;-81
2022/02/23 05:52:24;;;;;;;12.50;5.75;;;-0.10;99.90;;;;;;5055437;28;20368;-81
2022/02/23 05:54:50;;;;;;;9.45;6.57;;;-0.10;99.90;;;;;;5037636;28;20024;-82
2022/02/23 05:57:16;;;;;;;6.35;3.70;;;-0.20;99.90;;;;;;5037887;28;20367;-81
2022/02/23 05:59:42;;;;;;;7.13;3.97;;;-0.20;99.90;;;;;;5036725;28;20476;-82
2022/02/23 06:02:07;;;;;;;9.70;4.05;;;-0.20;99.90;;;;;;5054210;28;20035;-80
2022/02/23 06:04:36;;;;;;;14.75;6.03;;;-0.20;99.90;;;;;;5036111;28;20028;-81
2022/02/23 06:07:03;;;;;;;7.00;3.63;;;-0.20;99.90;;;;;;5061108;28;20047;-84
2022/02/23 06:09:29;;;;;;;7.25;3.33;;;-0.20;99.90;;;;;;5044302;28;20041;-82
2022/02/23 06:11:54;;;;;;;10.63;4.60;;;-0.10;99.90;;;;;;5044905;28;20040;-82
2022/02/23 06:14:20;;;;;;;10.13;4.10;;;-0.10;99.90;;;;;;5041014;28;20463;-82
2022/02/23 06:16:46;;;;;;;7.18;3.67;;;-0.10;99.90;;;;;;5037807;28;20029;-81
2022/02/23 06:19:11;;;;;;;11.23;3.88;;;0.00;99.90;;;;;;5037428;28;20035;-82
2022/02/23 06:21:37;;;;;;;13.30;4.88;;;0.00;99.90;;;;;;5036951;28;20033;-84
2022/02/23 06:24:03;;;;;;;10.02;4.25;;;0.10;99.90;;;;;;5036862;28;20048;-80
2022/02/23 06:26:28;;;;;;;8.65;4.13;;;0.10;99.90;;;;;;5036831;28;20060;-81
2022/02/23 06:28:54;;;;;;;8.65;4.10;;;0.20;99.90;;;;;;5036147;28;20028;-81
2022/02/23 06:31:20;;;;;;;11.50;3.97;;;0.30;99.90;;;;;;5037050;28;20032;-81
2022/02/23 06:33:46;;;;;;;5.28;3.15;;;0.30;99.90;;;;;;5036626;28;20121;-81
2022/02/23 06:36:13;;;;;;;6.35;3.63;;;0.40;99.90;;;;;;5036824;28;20546;-80
2022/02/23 06:38:41;;;;;;;5.80;3.50;;;0.50;99.90;;;;;;5036740;28;20017;-81
2022/02/23 06:41:13;;;;;;;9.68;4.60;;;0.60;99.90;;;;;;5054703;28;20091;-83
2022/02/23 06:43:39;;;;;;;8.88;4.35;;;0.80;99.90;;;;;;5036134;28;20032;-79
2022/02/23 06:46:05;;;;;;;8.02;3.10;;;0.90;99.90;;;;;;5035673;28;20025;-79
2022/02/23 06:48:32;;;;;;;5.88;3.50;;;1.00;99.90;;;;;;5054100;28;20636;-79
2022/02/23 06:50:57;;;;;;;5.30;2.60;;;1.20;99.90;;;;;;5035375;28;20380;-79
2022/02/23 06:53:24;;;;;;;11.82;3.25;;;1.30;99.90;;;;;;5052244;28;20028;-79
2022/02/23 06:55:49;;;;;;;5.68;3.15;;;1.40;99.90;;;;;;5035460;28;20487;-79
2022/02/23 06:58:15;;;;;;;4.95;2.88;;;1.50;99.90;;;;;;5035306;28;20119;-79
2022/02/23 07:00:41;;;;;;;4.82;2.70;;;1.60;99.90;;;;;;5035755;28;20504;-79
2022/02/23 07:03:08;;;;;;;9.93;4.25;;;1.70;99.90;;;;;;5034843;28;20025;-79
2022/02/23 07:05:35;;;;;;;5.07;3.28;;;1.80;99.90;;;;;;5053320;28;20533;-80
2022/02/23 07:08:04;;;;;;;6.95;3.47;;;1.90;99.90;;;;;;5035193;28;20056;-79
2022/02/23 07:10:30;;;;;;;8.60;3.45;;;1.90;99.90;;;;;;5034865;28;20033;-79
2022/02/23 07:12:57;;;;;;;7.75;3.42;;;2.00;99.90;;;;;;5035397;28;20498;-79
2022/02/23 07:15:24;;;;;;;6.15;2.78;;;2.10;99.90;;;;;;5053114;28;20028;-79
2022/02/23 07:17:51;;;;;;;5.03;3.22;;;2.20;99.90;;;;;;5034896;28;20021;-79
2022/02/23 07:20:18;;;;;;;10.82;3.50;;;2.30;99.90;;;;;;5052896;28;20025;-79
2022/02/23 07:22:44;;;;;;;10.05;4.47;;;2.40;99.90;;;;;;5035009;28;20387;-79
2022/02/23 07:25:11;;;;;;;6.95;3.72;;;2.50;99.90;;;;;;5034586;28;20029;-79
2022/02/23 07:27:37;;;;;;;7.93;2.97;;;2.70;99.90;;;;;;5034980;28;20078;-81
2022/02/23 07:30:05;;;;;;;11.88;4.03;;;2.20;99.90;;;;;;5034660;28;20525;-78
2022/02/23 07:32:31;;;;;;;10.63;3.42;;;2.70;99.90;;;;;;5035446;28;20104;-82
2022/02/23 07:34:58;;;;;;;10.50;4.28;;;2.40;99.90;;;;;;5034951;28;20476;-81
2022/02/23 07:37:24;;;;;;;9.23;3.85;;;2.60;99.90;;;;;;5054149;28;20021;-82
2022/02/23 07:39:52;;;;;;;7.75;4.35;;;2.80;99.90;;;;;;5055729;28;20426;-81
2022/02/23 07:42:19;;;;;;;12.20;4.60;;;2.60;99.90;;;;;;5025913;28;20049;-84
2022/02/23 07:44:46;;;;;;;15.05;7.07;;;3.90;99.90;;;;;;5042153;28;20033;-84
2022/02/23 07:47:12;;;;;;;17.15;7.40;;;4.30;99.90;;;;;;5042578;28;20028;-82
2022/02/23 07:49:38;;;;;;;15.05;5.97;;;3.30;99.90;;;;;;5025730;28;20091;-82
2022/02/23 07:52:04;;;;;;;12.40;5.35;;;3.00;99.90;;;;;;5042438;28;20021;-80
2022/02/23 07:54:30;;;;;;;12.48;6.38;;;3.00;99.90;;;;;;5041647;28;20029;-81
2022/02/23 07:56:56;;;;;;;102.15;37.17;;;3.90;99.90;;;;;;5057672;28;20017;-81
2022/02/23 07:59:22;;;;;;;194.73;78.13;;;3.20;99.90;;;;;;5057791;28;20029;-79
2022/02/23 08:01:48;;;;;;;12.38;5.90;;;3.60;99.90;;;;;;5040152;28;20053;-80
2022/02/23 08:04:15;;;;;;;9.27;4.45;;;3.20;99.90;;;;;;5039763;28;20031;-82
2022/02/23 08:06:41;;;;;;;11.48;3.72;;;4.00;99.90;;;;;;5040178;28;20079;-81
2022/02/23 08:09:09;;;;;;;6.45;3.40;;;3.00;99.90;;;;;;5039991;28;20082;-79
2022/02/23 08:11:37;;;;;;;7.53;3.45;;;3.30;99.90;;;;;;5040949;28;20025;-79
2022/02/23 08:14:10;;;;;;;14.48;4.03;;;4.00;99.90;;;;;;5023933;28;20033;-82
2022/02/23 08:22:08;;;;;;;5.95;3.15;;;3.20;99.90;;;;;;5057638;28;20372;-81
2022/02/23 08:24:37;;;;;;;6.75;3.75;;;3.60;99.90;;;;;;5039381;28;20075;-80
2022/02/23 08:27:04;;;;;;;10.25;3.88;;;3.50;99.90;;;;;;5057274;28;20021;-79
2022/02/23 08:29:31;;;;;;;10.07;3.25;;;3.70;99.90;;;;;;5057396;28;20040;-79
2022/02/23 08:31:57;;;;;;;12.90;4.75;;;3.90;99.90;;;;;;5058050;28;20028;-84
2022/02/23 08:34:24;;;;;;;11.30;4.13;;;4.00;99.90;;;;;;5042497;28;20032;-84
2022/02/23 08:36:49;;;;;;;7.00;2.78;;;4.30;99.90;;;;;;5040318;28;20029;-85
2022/02/23 08:39:15;;;;;;;8.38;3.97;;;4.60;99.90;;;;;;5041259;28;20025;-85
2022/02/23 08:41:45;;;;;;;9.88;4.35;;;4.50;99.90;;;;;;5039128;28;20081;-80
2022/02/23 08:44:12;;;;;;;8.30;4.75;;;4.70;99.90;;;;;;5039160;28;20553;-83
2022/02/23 08:46:39;;;;;;;12.32;5.30;;;4.90;99.90;;;;;;5039465;28;20067;-80
2022/02/23 08:49:09;;;;;;;10.05;4.97;;;5.10;99.90;;;;;;5057122;28;20460;-83
2022/02/23 08:51:36;;;;;;;6.68;2.72;;;5.40;99.90;;;;;;5038726;28;20132;-83
2022/02/23 08:54:02;;;;;;;5.35;2.38;;;5.20;99.90;;;;;;5038912;28;20017;-83
2022/02/23 08:56:28;;;;;;;3.80;1.45;;;5.40;99.90;;;;;;5039491;28;20033;-84
2022/02/23 08:58:53;;;;;;;9.25;4.80;;;5.90;99.90;;;;;;5040106;28;20033;-78
2022/02/23 09:01:19;;;;;;;14.95;6.28;;;6.20;99.90;;;;;;5057307;28;20028;-78
2022/02/23 09:03:45;;;;;;;4.55;2.45;;;6.30;99.90;;;;;;5038502;28;20029;-84
2022/02/23 09:06:11;;;;;;;5.32;2.10;;;6.10;99.90;;;;;;5038849;28;20021;-85
2022/02/23 09:08:37;;;;;;;3.90;2.35;;;6.20;99.90;;;;;;5038777;28;20028;-81
2022/02/23 09:11:03;;;;;;;5.13;3.40;;;6.20;99.90;;;;;;5038147;28;20029;-78
2022/02/23 09:13:29;;;;;;;7.45;3.67;;;6.30;99.90;;;;;;5054352;28;20029;-80
2022/02/23 09:15:54;;;;;;;7.65;2.80;;;6.40;99.90;;;;;;5055683;28;20120;-79
2022/02/23 09:18:20;;;;;;;4.30;2.25;;;6.50;99.90;;;;;;5037266;28;20024;-79
2022/02/23 09:20:46;;;;;;;5.45;2.50;;;6.70;99.90;;;;;;5037335;28;20036;-79
2022/02/23 09:23:11;;;;;;;1.88;1.50;;;6.90;99.90;;;;;;5037517;28;20028;-79
2022/02/23 09:25:37;;;;;;;5.28;2.45;;;7.30;99.90;;;;;;5054389;28;20488;-80
2022/02/23 09:28:03;;;;;;;6.68;1.95;;;7.80;99.90;;;;;;5054698;28;20112;-79
2022/02/23 09:30:28;;;;;;;1.75;1.20;;;7.80;99.90;;;;;;5055041;28;20115;-80
2022/02/23 09:32:54;;;;;;;0.82;0.65;;;8.50;99.90;;;;;;5037905;28;20027;-81
2022/02/23 09:35:21;;;;;;;0.28;0.28;;;8.80;86.80;;;;;;5054148;28;20376;-81
2022/02/23 09:37:48;;;;;;;0.40;0.30;;;9.10;82.00;;;;;;5054387;28;20017;-81
2022/02/23 09:40:17;;;;;;;0.30;0.20;;;9.40;78.20;;;;;;5036937;28;20029;-79
2022/02/23 09:42:44;;;;;;;0.60;0.30;;;9.60;74.20;;;;;;5037088;28;20106;-80
2022/02/23 09:45:12;;;;;;;1.15;0.30;;;9.70;71.70;;;;;;5037227;28;20159;-77
2022/02/23 09:47:37;;;;;;;0.28;0.28;;;9.80;69.50;;;;;;5036887;28;20445;-83
2022/02/23 09:50:06;;;;;;;0.82;0.50;;;9.90;69.80;;;;;;5037954;28;20068;-85
2022/02/23 09:52:32;;;;;;;0.80;0.20;;;10.00;67.20;;;;;;5037891;28;20021;-83
2022/02/23 09:55:00;;;;;;;1.17;0.30;;;10.10;66.70;;;;;;5037653;28;20033;-81
2022/02/23 09:57:26;;;;;;;1.35;0.30;;;10.20;67.10;;;;;;5037767;28;20017;-83
2022/02/23 09:59:52;;;;;;;2.65;0.50;;;10.20;64.50;;;;;;5037712;28;20057;-83
2022/02/23 10:02:20;;;;;;;2.88;0.30;;;10.20;61.70;;;;;;5036890;28;20510;-83
2022/02/23 10:04:48;;;;;;;1.33;0.43;;;10.30;61.80;;;;;;5037163;28;20044;-83
2022/02/23 10:07:13;;;;;;;0.35;0.20;;;10.30;62.30;;;;;;5037062;28;20021;-83
2022/02/23 10:09:44;;;;;;;0.65;0.25;;;10.30;62.90;;;;;;5053254;28;20040;-83
2022/02/23 10:12:26;;;;;;;2.15;0.30;;;10.40;62.70;;;;;;5055088;28;20021;-82
2022/02/23 10:15:12;;;;;;;0.85;0.30;;;10.40;61.30;;;;;;5055314;28;20036;-84
2022/02/23 10:17:47;;;;;;;3.03;0.30;;;10.40;61.30;;;;;;5055178;28;20419;-81
2022/02/23 10:20:34;;;;;;;0.95;0.30;;;10.40;61.50;;;;;;5054239;28;20029;-81
2022/02/23 10:23:03;;;;;;;1.38;0.40;;;10.50;61.40;;;;;;5036392;28;20029;-77
2022/02/23 10:25:42;;;;;;;1.88;1.00;;;10.50;61.40;;;;;;5053113;28;20075;-78
2022/02/23 10:28:20;;;;;;;0.75;0.55;;;10.60;60.00;;;;;;5035665;28;20028;-76
2022/02/23 10:30:51;;;;;;;3.60;0.52;;;10.60;58.30;;;;;;5053208;28;20025;-78
2022/02/23 10:33:19;;;;;;;1.05;0.10;;;10.70;59.40;;;;;;5053305;28;20033;-77
2022/02/23 10:36:05;;;;;;;0.45;0.40;;;10.80;66.60;;;;;;5034897;28;20032;-79
2022/02/23 10:38:37;;;;;;;;;;;10.60;59.10;;;;;;5035638;28;20464;-79
2022/02/23 10:41:06;;;;;;;0.40;0.40;;;10.70;59.80;;;;;;5052762;28;19927;-80
2022/02/23 10:43:39;;;;;;;2.15;0.45;;;10.80;59.80;;;;;;5053226;28;20017;-79
2022/02/23 10:46:15;;;;;;;0.93;0.38;;;10.90;59.30;;;;;;5035920;28;20062;-79
2022/02/23 10:48:51;;;;;;;0.20;0.20;;;10.90;57.10;;;;;;5037028;28;20483;-77
2022/02/23 10:51:23;;;;;;;0.47;0.10;;;10.80;57.90;;;;;;5053480;28;20033;-79
2022/02/23 10:53:51;;;;;;;1.05;0.35;;;10.80;57.30;;;;;;5053049;28;20029;-79
2022/02/23 10:56:24;;;;;;;0.30;0.30;;;10.80;57.30;;;;;;5052850;28;20103;-78
2022/02/23 10:59:04;;;;;;;1.48;0.28;;;10.80;57.60;;;;;;5052892;28;20371;-78
2022/02/23 11:01:30;;;;;;;2.30;0.40;;;10.90;58.90;;;;;;5034469;28;20427;-78
2022/02/23 11:03:57;;;;;;;0.90;0.30;;;11.00;59.00;;;;;;5052819;28;20025;-79
2022/02/23 11:06:23;;;;;;;0.98;0.30;;;11.00;58.00;;;;;;5052393;28;20055;-78
2022/02/23 11:08:50;;;;;;;1.85;0.40;;;11.00;58.30;;;;;;5034565;28;20024;-77
2022/02/23 11:11:18;;;;;;;1.60;0.45;;;11.10;58.80;;;;;;5034434;28;20151;-78
2022/02/23 11:13:43;;;;;;;0.90;0.30;;;11.30;61.10;;;;;;5034559;28;20024;-77
2022/02/23 11:16:10;;;;;;;0.98;0.40;;;11.20;57.10;;;;;;5052306;28;20603;-77
2022/02/23 11:18:40;;;;;;;1.75;0.55;;;11.10;57.50;;;;;;5052399;28;20017;-79
2022/02/23 11:21:07;;;;;;;0.30;0.20;;;11.00;63.00;;;;;;5035237;28;20037;-80
2022/02/23 11:23:34;;;;;;;0.73;0.35;;;10.80;57.90;;;;;;5035352;28;20472;-81
2022/02/23 11:26:00;;;;;;;0.50;0.40;;;10.90;57.70;;;;;;5035284;28;20033;-81
2022/02/23 11:28:30;;;;;;;0.30;0.17;;;11.10;58.80;;;;;;5053319;28;20032;-80
2022/02/23 11:30:59;;;;;;;3.42;0.40;;;11.20;58.10;;;;;;5035134;28;20476;-84
2022/02/23 11:33:46;;;;;;;0.63;0.40;;;11.40;57.90;;;;;;5035379;28;20125;-81
2022/02/23 11:36:25;;;;;;;0.52;0.43;;;11.50;56.30;;;;;;5051805;28;20032;-81
2022/02/23 11:38:52;;;;;;;1.50;0.40;;;11.70;65.80;;;;;;5035466;28;20074;-82
2022/02/23 11:41:33;;;;;;;0.52;0.38;;;11.50;55.40;;;;;;5034966;28;20140;-80
2022/02/23 11:44:02;;;;;;;0.93;0.60;;;11.40;55.30;;;;;;5034516;28;20078;-79
2022/02/23 11:46:28;;;;;;;1.15;0.40;;;11.20;55.60;;;;;;5051383;28;20032;-78
2022/02/23 11:48:57;;;;;;;2.72;0.70;;;11.10;54.80;;;;;;5034676;28;20021;-79
2022/02/23 11:51:25;;;;;;;1.77;0.50;;;11.20;66.40;;;;;;5034563;28;20384;-80
2022/02/23 11:53:51;;;;;;;1.48;0.40;;;11.30;59.00;;;;;;5050810;28;20628;-79
2022/02/23 11:56:20;;;;;;;0.80;0.28;;;11.60;62.40;;;;;;5052636;28;20127;-79
2022/02/23 11:58:51;;;;;;;0.60;0.35;;;11.60;57.00;;;;;;5034319;28;20033;-78
2022/02/23 12:01:20;;;;;;;1.42;0.63;;;11.60;57.80;;;;;;5034343;28;20025;-79
2022/02/23 12:04:04;;;;;;;2.22;0.70;;;11.80;56.70;;;;;;5034363;28;20025;-74
2022/02/23 12:07:06;;;;;;;0.85;0.30;;;11.90;56.40;;;;;;5034666;28;20021;-75
2022/02/23 12:09:57;;;;;;;1.25;0.50;;;11.80;55.20;;;;;;5052183;28;20041;-78
2022/02/23 12:12:29;;;;;;;0.85;0.52;;;11.80;55.40;;;;;;5052322;28;20031;-78
2022/02/23 12:14:55;;;;;;;2.13;0.93;;;11.80;57.40;;;;;;5052460;28;20049;-79
2022/02/23 12:17:43;;;;;;;2.13;0.50;;;11.80;58.60;;;;;;5034658;28;20021;-75
2022/02/23 12:20:35;;;;;;;0.90;0.30;;;11.90;71.80;;;;;;5052072;28;20570;-76
2022/02/23 12:23:06;;;;;;;1.55;0.38;;;11.90;58.80;;;;;;5041440;28;20392;-74
2022/02/23 12:25:57;;;;;;;1.67;0.50;;;11.80;55.50;;;;;;5051912;28;20515;-75
2022/02/23 12:28:27;;;;;;;1.23;0.30;;;11.90;74.00;;;;;;5055854;28;20149;-76
2022/02/23 12:31:03;;;;;;;0.55;0.28;;;11.80;54.80;;;;;;5055653;28;20036;-78
2022/02/23 12:33:32;;;;;;;2.08;0.43;;;11.90;54.70;;;;;;5055777;28;20021;-76
2022/02/23 12:36:10;;;;;;;0.52;0.30;;;11.80;54.60;;;;;;5055376;28;20562;-76
2022/02/23 12:38:40;;;;;;;1.02;0.50;;;11.90;54.70;;;;;;5055638;28;20028;-78
2022/02/23 12:41:10;;;;;;;0.88;0.30;;;11.80;55.10;;;;;;5055462;28;20037;-77
2022/02/23 12:43:40;;;;;;;1.50;1.20;;;11.80;55.40;;;;;;5037936;28;20032;-79
2022/02/23 12:46:06;;;;;;;0.65;0.50;;;11.90;55.00;;;;;;5055526;28;20032;-79
2022/02/23 12:48:34;;;;;;;1.02;0.45;;;11.90;54.30;;;;;;5055621;28;20024;-76
2022/02/23 12:51:10;;;;;;;0.90;0.40;;;12.00;54.10;;;;;;5055414;28;20036;-78
2022/02/23 12:53:41;;;;;;;0.50;0.22;;;11.90;53.90;;;;;;5055272;28;20092;-78
2022/02/23 12:56:27;;;;;;;2.22;0.40;;;12.00;54.60;;;;;;5055382;28;20017;-80
2022/02/23 12:59:10;;;;;;;1.67;1.20;;;12.10;53.30;;;;;;5054964;28;20025;-79